sensor_id;sensor_type;location;lat;lon;timestamp;P1;durP1;ratioP1;P2;durP2;ratioP2
46377;SDS011;32083;47.360;9.650;2022-07-23T05:02:57;7.15;;;6.55;;
46377;SDS011;32083;47.360;9.650;2022-07-23T05:05:23;7.20;;;6.60;;
46377;SDS011;32083;47.360;9.650;2022-07-23T05:07:49;5.68;;;5.18;;
46377;SDS011;32083;47.360;9.650;2022-07-23T05:10:15;6.35;;;5.72;;
46377;SDS011;32083;47.360;9.650;2022-07-23T05:12:42;6.43;;;5.88;;
46377;SDS011;32083;47.360;9.650;2022-07-23T05:15:08;6.30;;;5.68;;
46377;SDS011;32083;47.360;9.650;2022-07-23T05:17:34;5.57;;;5.07;;
46377;SDS011;32083;47.360;9.650;2022-07-23T05:20:00;5.72;;;5.25;;
46377;SDS011;32083;47.360;9.650;2022-07-23T05:22:25;5.70;;;5.20;;
46377;SDS011;32083;47.360;9.650;2022-07-23T05:24:52;5.78;;;5.18;;
46377;SDS011;32083;47.360;9.650;2022-07-23T05:27:18;6.57;;;5.97;;
46377;SDS011;32083;47.360;9.650;2022-07-23T05:29:44;9.57;;;6.50;;
46377;SDS011;32083;47.360;9.650;2022-07-23T05:32:10;7.50;;;6.05;;
46377;SDS011;32083;47.360;9.650;2022-07-23T05:34:36;6.15;;;5.55;;
46377;SDS011;32083;47.360;9.650;2022-07-23T05:37:02;6.57;;;5.97;;
46377;SDS011;32083;47.360;9.650;2022-07-23T05:39:28;8.30;;;6.65;;
46377;SDS011;32083;47.360;9.650;2022-07-23T05:41:54;6.95;;;6.22;;
46377;SDS011;32083;47.360;9.650;2022-07-23T05:44:20;6.00;;;5.50;;
46377;SDS011;32083;47.360;9.650;2022-07-23T05:46:48;6.25;;;5.65;;
46377;SDS011;32083;47.360;9.650;2022-07-23T05:49:29;8.18;;;6.07;;
46377;SDS011;32083;47.360;9.650;2022-07-23T05:51:58;6.95;;;6.32;;
46377;SDS011;32083;47.360;9.650;2022-07-23T05:54:34;6.35;;;5.85;;
46377;SDS011;32083;47.360;9.650;2022-07-23T16:12:49;8.85;;;8.05;;
46377;SDS011;32083;47.360;9.650;2022-07-23T16:15:45;8.35;;;7.65;;
46377;SDS011;32083;47.360;9.650;2022-07-23T16:19:02;9.05;;;8.25;;
46377;SDS011;32083;47.360;9.650;2022-07-23T16:22:14;8.90;;;8.20;;
46377;SDS011;32083;47.360;9.650;2022-07-23T16:25:40;10.15;;;7.72;;
46377;SDS011;32083;47.360;9.650;2022-07-23T16:32:30;8.68;;;7.85;;
46377;SDS011;32083;47.360;9.650;2022-07-23T16:35:53;9.45;;;8.63;;
46377;SDS011;32083;47.360;9.650;2022-07-23T16:38:59;9.25;;;8.38;;
46377;SDS011;32083;47.360;9.650;2022-07-23T16:41:52;8.23;;;7.43;;
46377;SDS011;32083;47.360;9.650;2022-07-23T16:47:52;11.00;;;8.48;;
46377;SDS011;32083;47.360;9.650;2022-07-23T16:50:22;8.43;;;7.63;;
46377;SDS011;32083;47.360;9.650;2022-07-23T16:54:05;9.95;;;8.20;;
46377;SDS011;32083;47.360;9.650;2022-07-23T16:57:32;9.00;;;8.05;;
46377;SDS011;32083;47.360;9.650;2022-07-23T17:00:21;9.02;;;8.27;;
46377;SDS011;32083;47.360;9.650;2022-07-23T17:03:19;7.90;;;7.20;;
46377;SDS011;32083;47.360;9.650;2022-07-23T17:06:45;8.83;;;7.83;;
46377;SDS011;32083;47.360;9.650;2022-07-23T17:13:34;8.80;;;8.00;;
46377;SDS011;32083;47.360;9.650;2022-07-23T17:16:38;8.90;;;8.10;;
46377;SDS011;32083;47.360;9.650;2022-07-23T17:19:10;8.20;;;7.50;;
46377;SDS011;32083;47.360;9.650;2022-07-23T17:22:26;8.40;;;7.60;;
46377;SDS011;32083;47.360;9.650;2022-07-23T17:25:03;8.40;;;7.68;;
46377;SDS011;32083;47.360;9.650;2022-07-23T17:28:01;9.95;;;8.00;;
46377;SDS011;32083;47.360;9.650;2022-07-23T17:31:10;8.90;;;8.07;;
46377;SDS011;32083;47.360;9.650;2022-07-23T17:34:04;9.27;;;8.48;;
46377;SDS011;32083;47.360;9.650;2022-07-23T17:37:15;9.02;;;8.25;;
46377;SDS011;32083;47.360;9.650;2022-07-23T17:40:06;7.80;;;7.20;;
46377;SDS011;32083;47.360;9.650;2022-07-23T17:42:44;9.10;;;8.23;;
46377;SDS011;32083;47.360;9.650;2022-07-23T17:45:17;9.02;;;8.32;;
46377;SDS011;32083;47.360;9.650;2022-07-23T17:47:53;8.30;;;7.50;;
46377;SDS011;32083;47.360;9.650;2022-07-23T17:50:42;8.55;;;7.85;;
46377;SDS011;32083;47.360;9.650;2022-07-23T17:53:48;9.32;;;8.32;;
46377;SDS011;32083;47.360;9.650;2022-07-23T17:59:39;8.57;;;7.82;;
46377;SDS011;32083;47.360;9.650;2022-07-23T18:02:47;8.10;;;7.40;;
46377;SDS011;32083;47.360;9.650;2022-07-23T18:05:22;8.68;;;7.95;;
46377;SDS011;32083;47.360;9.650;2022-07-23T18:07:48;8.18;;;7.47;;
46377;SDS011;32083;47.360;9.650;2022-07-23T18:10:18;8.05;;;7.25;;
46377;SDS011;32083;47.360;9.650;2022-07-23T18:12:51;8.02;;;7.28;;
46377;SDS011;32083;47.360;9.650;2022-07-23T18:15:43;9.65;;;8.75;;
46377;SDS011;32083;47.360;9.650;2022-07-23T18:18:35;9.02;;;8.13;;
46377;SDS011;32083;47.360;9.650;2022-07-23T18:21:07;8.93;;;8.23;;
46377;SDS011;32083;47.360;9.650;2022-07-23T18:23:39;8.52;;;7.82;;
46377;SDS011;32083;47.360;9.650;2022-07-23T18:26:44;8.57;;;7.78;;
46377;SDS011;32083;47.360;9.650;2022-07-23T18:29:43;8.55;;;7.80;;
46377;SDS011;32083;47.360;9.650;2022-07-23T18:35:48;9.82;;;8.82;;
46377;SDS011;32083;47.360;9.650;2022-07-23T18:39:08;9.80;;;8.90;;
46377;SDS011;32083;47.360;9.650;2022-07-23T18:42:23;9.77;;;8.98;;
46377;SDS011;32083;47.360;9.650;2022-07-23T18:44:58;9.30;;;8.43;;
46377;SDS011;32083;47.360;9.650;2022-07-23T18:48:07;9.90;;;9.00;;
46377;SDS011;32083;47.360;9.650;2022-07-23T18:53:52;10.15;;;9.25;;
46377;SDS011;32083;47.360;9.650;2022-07-23T18:56:24;9.65;;;8.52;;
46377;SDS011;32083;47.360;9.650;2022-07-23T18:59:20;10.70;;;9.82;;
46377;SDS011;32083;47.360;9.650;2022-07-23T19:02:08;10.50;;;9.38;;
46377;SDS011;32083;47.360;9.650;2022-07-23T19:05:01;9.50;;;8.75;;
46377;SDS011;32083;47.360;9.650;2022-07-23T19:08:02;10.35;;;9.35;;
46377;SDS011;32083;47.360;9.650;2022-07-23T19:10:46;10.50;;;9.60;;
46377;SDS011;32083;47.360;9.650;2022-07-23T19:13:18;10.93;;;9.88;;
46377;SDS011;32083;47.360;9.650;2022-07-23T19:16:11;10.00;;;9.10;;
46377;SDS011;32083;47.360;9.650;2022-07-23T19:19:19;10.35;;;9.45;;
46377;SDS011;32083;47.360;9.650;2022-07-23T19:21:48;11.18;;;10.07;;
46377;SDS011;32083;47.360;9.650;2022-07-23T19:24:30;10.77;;;9.77;;
46377;SDS011;32083;47.360;9.650;2022-07-23T19:28:13;11.50;;;10.43;;
46377;SDS011;32083;47.360;9.650;2022-07-23T19:31:30;10.43;;;9.52;;
46377;SDS011;32083;47.360;9.650;2022-07-23T19:35:29;12.05;;;10.85;;
46377;SDS011;32083;47.360;9.650;2022-07-23T19:38:24;10.88;;;9.88;;
46377;SDS011;32083;47.360;9.650;2022-07-23T19:41:19;10.32;;;9.38;;
46377;SDS011;32083;47.360;9.650;2022-07-23T19:47:26;10.05;;;9.25;;
46377;SDS011;32083;47.360;9.650;2022-07-23T19:50:28;10.45;;;9.50;;
46377;SDS011;32083;47.360;9.650;2022-07-23T19:53:42;9.63;;;8.82;;
46377;SDS011;32083;47.360;9.650;2022-07-23T19:57:22;10.85;;;9.55;;
46377;SDS011;32083;47.360;9.650;2022-07-23T20:07:29;10.13;;;9.27;;
46377;SDS011;32083;47.360;9.650;2022-07-23T20:10:49;11.07;;;10.07;;
46377;SDS011;32083;47.360;9.650;2022-07-23T21:26:17;13.23;;;12.13;;
46377;SDS011;32083;47.360;9.650;2022-07-23T21:28:45;12.40;;;11.30;;
46377;SDS011;32083;47.360;9.650;2022-07-23T21:31:11;13.15;;;11.95;;
46377;SDS011;32083;47.360;9.650;2022-07-23T21:49:08;13.60;;;12.43;;
46377;SDS011;32083;47.360;9.650;2022-07-23T21:51:35;12.73;;;11.63;;
46377;SDS011;32083;47.360;9.650;2022-07-23T21:54:01;12.85;;;11.77;;
46377;SDS011;32083;47.360;9.650;2022-07-23T21:56:27;14.20;;;12.90;;
46377;SDS011;32083;47.360;9.650;2022-07-23T21:58:53;14.73;;;13.38;;
46377;SDS011;32083;47.360;9.650;2022-07-23T22:01:19;15.38;;;14.05;;
46377;SDS011;32083;47.360;9.650;2022-07-23T22:03:45;13.95;;;12.65;;
46377;SDS011;32083;47.360;9.650;2022-07-23T22:06:11;14.45;;;13.25;;
46377;SDS011;32083;47.360;9.650;2022-07-23T22:08:37;14.43;;;13.13;;
46377;SDS011;32083;47.360;9.650;2022-07-23T22:11:03;14.55;;;13.25;;
46377;SDS011;32083;47.360;9.650;2022-07-23T22:13:29;14.88;;;13.48;;
46377;SDS011;32083;47.360;9.650;2022-07-23T22:15:55;15.25;;;13.77;;
46377;SDS011;32083;47.360;9.650;2022-07-23T22:18:21;13.93;;;12.57;;
46377;SDS011;32083;47.360;9.650;2022-07-23T22:20:47;12.85;;;11.73;;
46377;SDS011;32083;47.360;9.650;2022-07-23T22:23:13;13.85;;;12.57;;
46377;SDS011;32083;47.360;9.650;2022-07-23T22:25:39;14.73;;;12.70;;
46377;SDS011;32083;47.360;9.650;2022-07-23T22:28:05;14.15;;;12.27;;
46377;SDS011;32083;47.360;9.650;2022-07-23T22:30:31;14.65;;;13.32;;
46377;SDS011;32083;47.360;9.650;2022-07-23T22:32:57;14.85;;;13.25;;
46377;SDS011;32083;47.360;9.650;2022-07-23T22:35:23;15.05;;;13.48;;
46377;SDS011;32083;47.360;9.650;2022-07-23T22:37:49;16.17;;;14.52;;
46377;SDS011;32083;47.360;9.650;2022-07-23T22:40:16;13.90;;;12.63;;
46377;SDS011;32083;47.360;9.650;2022-07-23T22:42:42;12.82;;;11.60;;
46377;SDS011;32083;47.360;9.650;2022-07-23T22:45:09;13.27;;;12.13;;
46377;SDS011;32083;47.360;9.650;2022-07-23T22:47:35;12.80;;;11.60;;
46377;SDS011;32083;47.360;9.650;2022-07-23T22:50:02;13.75;;;12.48;;
46377;SDS011;32083;47.360;9.650;2022-07-23T22:52:29;11.40;;;10.43;;
46377;SDS011;32083;47.360;9.650;2022-07-23T22:54:55;12.18;;;10.98;;
46377;SDS011;32083;47.360;9.650;2022-07-23T22:57:21;12.40;;;11.18;;
46377;SDS011;32083;47.360;9.650;2022-07-23T22:59:47;12.18;;;10.27;;
46377;SDS011;32083;47.360;9.650;2022-07-23T23:02:14;14.38;;;11.55;;
46377;SDS011;32083;47.360;9.650;2022-07-23T23:04:40;12.25;;;11.18;;
46377;SDS011;32083;47.360;9.650;2022-07-23T23:07:06;13.38;;;12.07;;
46377;SDS011;32083;47.360;9.650;2022-07-23T23:09:32;13.55;;;11.23;;
46377;SDS011;32083;47.360;9.650;2022-07-23T23:11:58;12.57;;;11.07;;
46377;SDS011;32083;47.360;9.650;2022-07-23T23:14:24;13.05;;;11.65;;
46377;SDS011;32083;47.360;9.650;2022-07-23T23:16:51;12.98;;;11.82;;
46377;SDS011;32083;47.360;9.650;2022-07-23T23:19:17;12.70;;;11.48;;
46377;SDS011;32083;47.360;9.650;2022-07-23T23:21:44;12.00;;;10.85;;
46377;SDS011;32083;47.360;9.650;2022-07-23T23:24:10;12.23;;;11.02;;
46377;SDS011;32083;47.360;9.650;2022-07-23T23:26:36;11.80;;;10.73;;
46377;SDS011;32083;47.360;9.650;2022-07-23T23:29:02;11.50;;;10.30;;
46377;SDS011;32083;47.360;9.650;2022-07-23T23:31:29;12.23;;;10.98;;
46377;SDS011;32083;47.360;9.650;2022-07-23T23:33:55;12.35;;;11.07;;
46377;SDS011;32083;47.360;9.650;2022-07-23T23:36:21;13.23;;;12.00;;
46377;SDS011;32083;47.360;9.650;2022-07-23T23:38:47;12.35;;;10.98;;
46377;SDS011;32083;47.360;9.650;2022-07-23T23:41:13;11.95;;;10.80;;
46377;SDS011;32083;47.360;9.650;2022-07-23T23:43:40;12.85;;;11.60;;
46377;SDS011;32083;47.360;9.650;2022-07-23T23:46:06;12.45;;;11.05;;
46377;SDS011;32083;47.360;9.650;2022-07-23T23:48:32;10.57;;;9.68;;
46377;SDS011;32083;47.360;9.650;2022-07-23T23:50:58;11.77;;;10.50;;
46377;SDS011;32083;47.360;9.650;2022-07-23T23:53:24;13.27;;;11.63;;
46377;SDS011;32083;47.360;9.650;2022-07-23T23:55:50;11.43;;;10.27;;
46377;SDS011;32083;47.360;9.650;2022-07-23T23:58:18;12.73;;;11.32;;
